Monday, September 01, 2014
23:33 UTC
  |  Log In   |  Register Free
Airport Search:

Fairfield County Airport
(KFDW)

Fairfield County Airport Diagram
No Airport Diagram Available

FAA data valid effective July 24, 2014 until September 18, 2014 (unless otherwise noted).

 
 
 
 
 
 
 
 
 
 
 
 
 
 

Current Aviation Weather for Fairfield County Airport (KFDW)

The most recent METAR observation for KFDW was updated at: 2215 UTC
METAR Summary (Translated METAR)
KFDW
012215Z AUTO 27004KT 10SM VCTS SCT080 27/22 A3007 RMK AO1 LTG DSNT SE THRU W
KCUB
(21.5 nm SE from KFDW)
012153Z AUTO 19005KT 10SM VCTS CLR 33/20 A3005 RMK AO2 LTG DSNT W-NE SLP172 T03330200
TAF Summary (Translated TAF)
KCUB
(21.5 nm SE from KFDW)
012131Z 0122/0218 VRB03KT P6SM SCT070 BKN180 FM012200 16006KT P6SM VCSH SCT060 BKN150 TEMPO 0122/0124 VRB10G20KT 3SM +TSRA BR SCT020 BKN050CB OVC100 FM020200 VRB03KT P6SM SCT200 FM021500 24004KT P6SM SCT200
KCAE
(22.6 nm SW from KFDW)
012155Z 0122/0218 16007KT P6SM SCT070 BKN180 FM012200 16006KT P6SM VCSH SCT060 BKN150 TEMPO 0122/0124 VRB20G35KT 3SM +TSRA BR SCT020 BKN050CB OVC100 FM020200 VRB04KT P6SM SCT200 FM021500 24004KT P6SM SCT200
  Airport Weather Conditions for KFDW

 Current Weather at FDW
79° F
Partly Cloudy
Southeast winds at 6.9 mph
FDW NOAA Radar

Pressure: 30.08 in
Humidity: 79%
Wind: from the Southeast at 6.9 gusting to 19.6 MPH (6 gusting to 17 KT)
Dew Point: 71.6°F
Visibility: 10.00 mi


Airport Weather Forecast for KFDW

Translated METAR and TAF for KFDW
Translated METAR for KFDW (2327 UTC 01 September 2014)
found at http://aviationweather.gov/adds/metars/
 
METAR text: KFDW 012315Z AUTO 15007KT 10SM VCTS CLR 25/22 A3008 RMK AO1 LTG DSNT E AND SE
Conditions at: KFDW (WINNSBORO , SC, US) observed 2315 UTC 01 September 2014
Temperature: 25.0°C (77°F)
Dewpoint: 22.0°C (72°F) [RH = 83%]
Pressure (altimeter): 30.08 inches Hg (1018.7 mb)
Winds: from the SSE (150 degrees) at 8 MPH (7 knots; 3.6 m/s)
Visibility: 10 or more miles (16+ km)
Ceiling: at least 12,000 feet AGL
Clouds: sky clear below 12,000 feet AGL
Weather: VCTS  (thunderstorm in vicinity)
Translated TAF for KFDW

There is no translated TAF available for this airport

Find All Airport Services Find A Hotel Find A Rental Car Find A Golf Course Find A Restaurant $100 Hamburger



FBO's on the Field
FBO Company Facility Photos Services Transportation Aviation Fuel Prices: Prices include tax
Catering Weather Repair Courtesy Rental Type 100LL JetA JetA+ MOGAS 8087
 
S & S Aviation Services

This FBO has not yet been rated
FS:Shell
Last Updated: Jul-17
Login to update fuel prices
SS:
Contact S & S Aviation ServicesMore FBO Information
 
Add another FBO Facility Photos Catering Weather Repair Courtesy Rental Type 100LL JetA JetA+ MOGAS 8087
Services Transportation Aviation Fuel Prices: Prices include tax


GlobalAir.com Airport Resource Center model-print
model-print
model-print
model-print